Time;durP1;ratioP1;P1;durP2;ratioP2;P2;SDS_P1;SDS_P2;PMS_P1;PMS_P2;Temp;Humidity;BMP_temperature;BMP_pressure;BME280_temperature;BME280_humidity;BME280_pressure;Samples;Min_cycle;Max_cycle;Signal;HPM_P1;HPM_P2
2021/10/31 00:02:21;;;;;;;;;;;24.30;43.00;;;;;;5094900;28;19912;-82
2021/10/31 00:04:49;;;;;;;;;;;24.30;43.20;;;;;;5099783;28;19912;-81
2021/10/31 00:07:15;;;;;;;;;;;24.40;43.20;;;;;;5092634;28;19935;-81
2021/10/31 00:09:40;;;;;;;;;;;24.30;43.20;;;;;;5095655;28;19908;-80
2021/10/31 00:12:09;;;;;;;;;;;24.30;43.20;;;;;;5078342;28;20333;-80
2021/10/31 00:14:37;;;;;;;;;;;24.30;43.10;;;;;;5077515;28;19912;-79
2021/10/31 00:17:05;;;;;;;;;;;24.30;43.20;;;;;;5077881;28;19959;-79
2021/10/31 00:19:33;;;;;;;;;;;24.30;43.20;;;;;;5078088;28;19986;-80
2021/10/31 00:22:01;;;;;;;;;;;24.30;43.20;;;;;;5078930;28;20344;-81
2021/10/31 00:24:26;;;;;;;;;;;24.30;43.20;;;;;;5094612;28;19909;-80
2021/10/31 00:26:52;;;;;;;;;;;24.30;43.20;;;;;;5077601;28;20007;-80
2021/10/31 00:29:17;;;;;;;;;;;24.30;43.20;;;;;;5078317;28;19958;-80
2021/10/31 00:31:43;;;;;;;;;;;24.30;43.20;;;;;;5094937;28;19909;-79
2021/10/31 00:34:11;;;;;;;;;;;24.30;43.20;;;;;;5094469;28;20244;-80
2021/10/31 00:36:39;;;;;;;;;;;24.30;43.20;;;;;;5077151;28;19944;-80
2021/10/31 00:39:07;;;;;;;;;;;24.30;43.20;;;;;;5076917;28;19982;-80
2021/10/31 00:41:35;;;;;;;;;;;24.30;43.20;;;;;;5094024;28;19913;-81
2021/10/31 00:44:03;;;;;;;;;;;24.30;43.20;;;;;;5076365;28;20014;-80
2021/10/31 00:46:29;;;;;;;;;;;24.30;43.20;;;;;;5076939;28;19920;-80
2021/10/31 00:48:55;;;;;;;;;;;24.30;43.20;;;;;;5093475;28;19908;-79
2021/10/31 00:51:21;;;;;;;;;;;24.30;43.20;;;;;;5093357;28;20009;-80
2021/10/31 00:53:49;;;;;;;;;;;24.30;43.20;;;;;;5076770;28;19983;-79
2021/10/31 00:56:17;;;;;;;;;;;24.30;43.20;;;;;;5076419;28;19935;-79
2021/10/31 00:58:42;;;;;;;;;;;24.30;43.20;;;;;;5076162;28;19908;-79
2021/10/31 01:01:08;;;;;;;;;;;24.30;43.20;;;;;;5076396;28;19913;-79
2021/10/31 01:03:34;;;;;;;;;;;24.30;43.30;;;;;;5075967;28;19959;-79
2021/10/31 01:06:18;;;;;;;;;;;24.30;43.30;;;;;;5076040;28;20003;-78
2021/10/31 01:08:43;;;;;;;;;;;24.30;43.30;;;;;;5092779;28;19916;-79
2021/10/31 01:11:14;;;;;;;;;;;24.30;43.30;;;;;;5077092;28;19917;-79
2021/10/31 01:14:03;;;;;;;;;;;24.30;43.30;;;;;;5092824;28;20329;-79
2021/10/31 01:16:34;;;;;;;;;;;24.30;43.30;;;;;;5092948;28;19915;-80
2021/10/31 01:19:11;;;;;;;;;;;24.30;43.40;;;;;;5075331;28;20255;-79
2021/10/31 01:21:46;;;;;;;;;;;24.30;43.40;;;;;;5075802;28;19923;-79
2021/10/31 01:24:29;;;;;;;;;;;24.20;43.30;;;;;;5076627;28;19908;-79
2021/10/31 01:26:56;;;;;;;;;;;24.20;43.30;;;;;;5092488;28;20005;-79
2021/10/31 01:29:21;;;;;;;;;;;24.20;43.40;;;;;;5076424;28;20258;-78
2021/10/31 01:32:00;;;;;;;;;;;24.20;43.40;;;;;;5092849;28;19912;-79
2021/10/31 01:34:32;;;;;;;;;;;24.20;43.30;;;;;;5076338;28;19912;-80
2021/10/31 01:37:05;;;;;;;;;;;24.20;43.40;;;;;;5092099;28;19908;-79
2021/10/31 01:39:33;;;;;;;;;;;24.30;43.40;;;;;;5092103;28;19920;-80
2021/10/31 01:42:08;;;;;;;;;;;24.30;43.40;;;;;;5076320;28;19987;-78
2021/10/31 01:44:42;;;;;;;;;;;24.20;43.30;;;;;;5092113;28;19991;-80
2021/10/31 01:47:08;;;;;;;;;;;24.30;43.40;;;;;;5076045;28;20011;-79
2021/10/31 01:49:42;;;;;;;;;;;24.20;43.40;;;;;;5076191;28;20396;-78
2021/10/31 01:52:12;;;;;;;;;;;24.20;43.40;;;;;;5075235;28;20341;-79
2021/10/31 01:54:39;;;;;;;;;;;24.20;43.40;;;;;;5092271;28;19955;-78
2021/10/31 01:57:06;;;;;;;;;;;24.20;43.40;;;;;;5091943;28;20230;-78
2021/10/31 01:59:38;;;;;;;;;;;24.20;43.40;;;;;;5074981;28;19909;-80
2021/10/31 02:02:06;;;;;;;;;;;24.20;43.40;;;;;;5074629;28;19966;-82
2021/10/31 02:04:32;;;;;;;;;;;24.20;43.40;;;;;;5074342;28;19908;-80
2021/10/31 02:07:03;;;;;;;;;;;24.20;43.50;;;;;;5074829;28;19912;-80
2021/10/31 02:09:29;;;;;;;;;;;24.20;43.40;;;;;;5074822;28;19948;-79
2021/10/31 02:11:54;;;;;;;;;;;24.20;43.40;;;;;;5074835;28;19920;-81
2021/10/31 02:14:22;;;;;;;;;;;24.20;43.50;;;;;;5075013;28;19912;-82
2021/10/31 02:16:50;;;;;;;;;;;24.20;43.40;;;;;;5087632;28;19959;-80
2021/10/31 02:19:24;;;;;;;;;;;24.20;43.40;;;;;;5062100;28;19922;-82
2021/10/31 02:21:55;;;;;;;;;;;24.20;43.40;;;;;;5078214;28;19908;-81
2021/10/31 02:24:21;;;;;;;;;;;24.20;43.40;;;;;;5078633;28;19943;-81
2021/10/31 02:26:46;;;;;;;;;;;24.20;43.40;;;;;;5061869;28;19966;-81
2021/10/31 02:29:12;;;;;;;;;;;24.20;43.40;;;;;;5061032;28;20313;-82
2021/10/31 02:31:37;;;;;;;;;;;24.20;43.40;;;;;;5060683;28;19911;-81
2021/10/31 02:34:06;;;;;;;;;;;24.20;43.50;;;;;;5077884;28;20355;-82
2021/10/31 02:36:34;;;;;;;;;;;24.20;43.50;;;;;;5078438;28;19965;-81
2021/10/31 02:39:01;;;;;;;;;;;24.20;43.50;;;;;;5061066;28;19931;-81
2021/10/31 02:41:30;;;;;;;;;;;24.20;43.50;;;;;;5077855;28;19916;-82
2021/10/31 02:43:59;;;;;;;;;;;24.20;43.50;;;;;;5078121;28;19916;-80
2021/10/31 02:46:28;;;;;;;;;;;24.20;43.50;;;;;;5077777;28;19926;-80
2021/10/31 02:48:54;;;;;;;;;;;24.20;43.50;;;;;;5077820;28;19909;-81
2021/10/31 02:51:40;;;;;;;;;;;24.20;43.50;;;;;;5061097;28;19974;-81
2021/10/31 02:54:06;;;;;;;;;;;24.20;43.50;;;;;;5067195;28;20303;-82
2021/10/31 02:56:35;;;;;;;;;;;24.20;43.50;;;;;;5060794;28;20366;-80
2021/10/31 02:59:22;;;;;;;;;;;24.20;43.60;;;;;;5077318;28;19907;-79
2021/10/31 03:01:50;;;;;;;;;;;24.20;43.60;;;;;;5060423;28;19912;-80
2021/10/31 03:04:18;;;;;;;;;;;24.20;43.50;;;;;;5060861;28;20295;-80
2021/10/31 03:06:44;;;;;;;;;;;24.20;43.60;;;;;;5077795;28;20015;-81
2021/10/31 03:09:10;;;;;;;;;;;24.20;43.60;;;;;;5060862;28;19919;-81
2021/10/31 03:11:41;;;;;;;;;;;24.10;43.60;;;;;;5061158;28;19908;-80
2021/10/31 03:14:06;;;;;;;;;;;24.10;43.60;;;;;;5060969;28;19912;-81
2021/10/31 03:16:35;;;;;;;;;;;24.20;43.60;;;;;;5077623;28;19919;-80
2021/10/31 03:19:00;;;;;;;;;;;24.20;43.60;;;;;;5061413;28;20282;-82
2021/10/31 03:21:26;;;;;;;;;;;24.20;43.60;;;;;;5061135;28;19908;-79
2021/10/31 03:23:51;;;;;;;;;;;24.20;43.60;;;;;;5077811;28;20054;-78
2021/10/31 03:26:17;;;;;;;;;;;24.20;43.60;;;;;;5077471;28;19938;-81
2021/10/31 03:28:42;;;;;;;;;;;24.20;43.60;;;;;;5061091;28;19919;-82
2021/10/31 03:31:08;;;;;;;;;;;24.20;43.60;;;;;;5061190;28;19927;-82
2021/10/31 03:33:38;;;;;;;;;;;24.20;43.60;;;;;;5060854;28;19927;-82
2021/10/31 03:36:06;;;;;;;;;;;24.20;43.60;;;;;;5061108;28;20280;-79
2021/10/31 03:38:31;;;;;;;;;;;24.20;43.60;;;;;;5060349;28;20336;-82
2021/10/31 03:40:59;;;;;;;;;;;24.10;43.60;;;;;;5077230;28;19912;-80
2021/10/31 03:43:25;;;;;;;;;;;24.20;43.60;;;;;;5080869;28;20544;-81
2021/10/31 03:45:51;;;;;;;;;;;24.20;43.60;;;;;;5081619;28;19908;-81
2021/10/31 03:48:19;;;;;;;;;;;24.20;43.60;;;;;;5064473;28;19934;-81
2021/10/31 03:50:45;;;;;;;;;;;24.10;43.60;;;;;;5081151;28;19909;-81
2021/10/31 03:53:13;;;;;;;;;;;24.10;43.60;;;;;;5064881;28;20007;-79
2021/10/31 03:55:38;;;;;;;;;;;24.10;43.60;;;;;;5064537;28;20337;-81
2021/10/31 03:58:04;;;;;;;;;;;24.10;43.60;;;;;;5064469;28;19924;-79
2021/10/31 04:00:29;;;;;;;;;;;24.10;43.60;;;;;;5081157;28;19927;-81
2021/10/31 04:02:57;;;;;;;;;;;24.10;43.60;;;;;;5064304;28;20324;-80
2021/10/31 04:05:25;;;;;;;;;;;24.10;43.60;;;;;;5081048;28;19908;-81
2021/10/31 04:07:51;;;;;;;;;;;24.10;43.60;;;;;;5081134;28;19915;-79
2021/10/31 04:10:16;;;;;;;;;;;24.10;43.50;;;;;;5080933;28;19908;-81
2021/10/31 04:12:42;;;;;;;;;;;24.10;43.60;;;;;;5080632;28;19934;-80
2021/10/31 04:15:08;;;;;;;;;;;24.10;43.60;;;;;;5063915;28;20255;-81
2021/10/31 04:17:33;;;;;;;;;;;24.10;43.60;;;;;;5063867;28;19954;-80
2021/10/31 04:19:59;;;;;;;;;;;24.10;43.60;;;;;;5098263;28;20252;-79
2021/10/31 04:22:28;;;;;;;;;;;24.10;43.60;;;;;;5064044;28;19907;-80
2021/10/31 04:24:56;;;;;;;;;;;24.10;43.60;;;;;;5064228;28;19908;-79
2021/10/31 04:27:21;;;;;;;;;;;24.10;43.60;;;;;;5064195;28;19909;-79
2021/10/31 04:29:47;;;;;;;;;;;24.10;43.60;;;;;;5063454;28;19942;-81
2021/10/31 04:32:12;;;;;;;;;;;24.10;43.60;;;;;;5063720;28;19930;-79
2021/10/31 04:34:38;;;;;;;;;;;24.10;43.60;;;;;;5113967;28;19912;-80
2021/10/31 04:37:06;;;;;;;;;;;24.10;43.60;;;;;;5063706;28;19919;-82
2021/10/31 04:39:31;;;;;;;;;;;24.10;43.60;;;;;;5080647;28;20312;-81
2021/10/31 04:42:07;;;;;;;;;;;24.10;43.70;;;;;;5063621;28;19917;-82
2021/10/31 04:44:33;;;;;;;;;;;24.10;44.20;;;;;;5065023;28;20340;-80
2021/10/31 04:47:00;;;;;;;;;;;24.10;43.70;;;;;;5080100;28;20003;-81
2021/10/31 04:49:26;;;;;;;;;;;24.10;43.70;;;;;;5063736;28;20301;-82
2021/10/31 04:51:54;;;;;;;;;;;24.10;43.70;;;;;;5080426;28;19944;-81
2021/10/31 04:54:22;;;;;;;;;;;24.10;43.70;;;;;;5062670;28;19915;-79
2021/10/31 04:56:48;;;;;;;;;;;24.10;43.70;;;;;;5063767;28;19908;-83
2021/10/31 04:59:14;;;;;;;;;;;24.10;43.60;;;;;;5080232;28;19966;-81
2021/10/31 05:01:39;;;;;;;;;;;24.10;43.60;;;;;;5063422;28;19916;-82
2021/10/31 05:04:05;;;;;;;;;;;24.10;43.70;;;;;;5079656;28;19908;-80
2021/10/31 05:06:30;;;;;;;;;;;24.10;43.60;;;;;;5063130;28;19908;-79
2021/10/31 05:09:01;;;;;;;;;;;24.10;43.70;;;;;;5079634;28;19999;-80
2021/10/31 05:11:26;;;;;;;;;;;24.10;43.70;;;;;;5063127;28;20414;-80
2021/10/31 05:13:54;;;;;;;;;;;24.10;43.60;;;;;;5062979;28;19912;-82
2021/10/31 05:16:20;;;;;;;;;;;24.10;43.70;;;;;;5063161;28;19919;-80
2021/10/31 05:18:45;;;;;;;;;;;24.10;43.60;;;;;;5063357;28;19908;-80
2021/10/31 05:21:13;;;;;;;;;;;24.10;43.60;;;;;;5062727;28;20411;-81
2021/10/31 05:23:39;;;;;;;;;;;24.10;43.60;;;;;;5079809;28;19908;-81
2021/10/31 05:26:04;;;;;;;;;;;24.10;43.60;;;;;;5079295;28;19908;-82
2021/10/31 05:28:32;;;;;;;;;;;24.10;43.70;;;;;;5062518;28;19985;-80
2021/10/31 05:30:58;;;;;;;;;;;24.00;43.60;;;;;;5062437;28;19973;-80
2021/10/31 05:33:26;;;;;;;;;;;24.00;43.60;;;;;;5062337;28;19908;-81
2021/10/31 05:35:52;;;;;;;;;;;24.10;43.70;;;;;;5079413;28;19912;-80
2021/10/31 05:38:20;;;;;;;;;;;24.00;43.60;;;;;;5062269;28;19924;-79
2021/10/31 05:40:46;;;;;;;;;;;24.10;43.70;;;;;;5062575;28;19916;-81
2021/10/31 05:43:11;;;;;;;;;;;24.10;43.70;;;;;;5078964;28;19918;-81
2021/10/31 05:45:37;;;;;;;;;;;24.00;43.60;;;;;;5079329;28;19911;-81
2021/10/31 05:48:02;;;;;;;;;;;24.00;43.70;;;;;;5062744;28;19908;-79
2021/10/31 05:50:30;;;;;;;;;;;24.00;43.70;;;;;;5078952;28;19908;-82
2021/10/31 05:52:58;;;;;;;;;;;24.00;43.70;;;;;;5096522;28;19947;-81
2021/10/31 05:55:26;;;;;;;;;;;24.00;43.60;;;;;;5062687;28;19998;-82
2021/10/31 05:57:51;;;;;;;;;;;24.10;43.70;;;;;;5079270;28;19908;-83
2021/10/31 06:00:17;;;;;;;;;;;24.10;43.70;;;;;;5062368;28;19922;-80
2021/10/31 06:02:43;;;;;;;;;;;24.00;43.70;;;;;;5062945;28;19908;-86
2021/10/31 06:05:11;;;;;;;;;;;24.10;44.10;;;;;;5063477;28;19908;-85
2021/10/31 06:07:36;;;;;;;;;;;24.10;44.70;;;;;;5062323;28;19973;-81
2021/10/31 06:10:03;;;;;;;;;;;24.20;43.90;;;;;;5061899;28;19916;-81
2021/10/31 06:12:28;;;;;;;;;;;23.90;41.80;;;;;;5078757;28;19912;-83
2021/10/31 06:14:54;;;;;;;;;;;23.70;41.40;;;;;;5061821;28;19912;-82
2021/10/31 06:17:19;;;;;;;;;;;23.50;41.50;;;;;;5061820;28;19908;-81
2021/10/31 06:19:45;;;;;;;;;;;23.30;41.70;;;;;;5078335;28;19908;-80
2021/10/31 06:22:12;;;;;;;;;;;23.10;42.00;;;;;;5078111;28;19969;-81
2021/10/31 06:24:38;;;;;;;;;;;22.90;42.30;;;;;;5061822;28;19913;-81
2021/10/31 06:27:04;;;;;;;;;;;22.80;42.50;;;;;;5096309;28;19957;-81
2021/10/31 06:29:30;;;;;;;;;;;22.70;42.70;;;;;;5078294;28;19970;-81
2021/10/31 06:31:57;;;;;;;;;;;22.60;43.10;;;;;;5078067;28;19909;-82
2021/10/31 06:34:25;;;;;;;;;;;22.60;43.50;;;;;;5078503;28;20539;-82
2021/10/31 06:36:53;;;;;;;;;;;22.90;44.30;;;;;;5078468;28;19908;-83
2021/10/31 06:39:21;;;;;;;;;;;23.20;44.00;;;;;;5078367;28;19920;-84
2021/10/31 06:41:47;;;;;;;;;;;23.40;43.70;;;;;;5061366;28;19919;-83
2021/10/31 06:44:15;;;;;;;;;;;23.60;43.80;;;;;;5061273;28;19924;-81
2021/10/31 06:46:43;;;;;;;;;;;23.70;44.00;;;;;;5061625;28;20305;-85
2021/10/31 06:49:12;;;;;;;;;;;23.70;44.00;;;;;;5061103;28;19930;-81
2021/10/31 06:51:38;;;;;;;;;;;23.80;43.90;;;;;;5078430;28;19927;-82
2021/10/31 06:54:03;;;;;;;;;;;23.90;43.80;;;;;;5077708;28;19912;-82
2021/10/31 06:56:29;;;;;;;;;;;24.00;43.70;;;;;;5061137;28;19908;-81
2021/10/31 06:58:55;;;;;;;;;;;24.00;43.70;;;;;;5061182;28;20002;-79
2021/10/31 07:01:23;;;;;;;;;;;24.00;43.60;;;;;;5077983;28;20232;-80
2021/10/31 07:03:49;;;;;;;;;;;24.10;43.60;;;;;;5078482;28;19908;-80
2021/10/31 07:06:15;;;;;;;;;;;24.10;43.50;;;;;;5061423;28;19919;-79
2021/10/31 07:08:41;;;;;;;;;;;24.10;43.50;;;;;;5061966;28;20023;-81
2021/10/31 07:11:07;;;;;;;;;;;24.10;43.50;;;;;;5078015;28;19981;-81
2021/10/31 07:13:33;;;;;;;;;;;24.10;43.50;;;;;;5078632;28;19999;-80
2021/10/31 07:16:01;;;;;;;;;;;24.10;43.50;;;;;;5061413;28;19923;-83
2021/10/31 07:18:27;;;;;;;;;;;24.10;43.50;;;;;;5064647;28;19915;-82
2021/10/31 07:20:52;;;;;;;;;;;24.20;43.60;;;;;;5065917;28;19908;-81
2021/10/31 07:23:18;;;;;;;;;;;24.10;43.60;;;;;;5065650;28;19908;-80
2021/10/31 07:25:46;;;;;;;;;;;24.20;43.60;;;;;;5066269;28;19908;-82
2021/10/31 07:28:14;;;;;;;;;;;24.20;43.70;;;;;;5084627;28;19908;-87
2021/10/31 07:30:41;;;;;;;;;;;24.20;43.90;;;;;;5065708;28;20337;-84
2021/10/31 07:33:09;;;;;;;;;;;24.20;44.10;;;;;;5082884;28;19919;-84
2021/10/31 07:35:37;;;;;;;;;;;24.20;44.10;;;;;;5065780;28;20014;-83
2021/10/31 07:38:04;;;;;;;;;;;24.20;44.30;;;;;;5065953;28;19946;-84
2021/10/31 07:40:29;;;;;;;;;;;24.30;44.50;;;;;;5065805;28;19919;-84
2021/10/31 07:42:55;;;;;;;;;;;24.30;44.70;;;;;;5065352;28;20262;-82
2021/10/31 07:45:23;;;;;;;;;;;24.30;44.70;;;;;;5082392;28;20259;-82
2021/10/31 07:47:51;;;;;;;;;;;24.30;44.70;;;;;;5065300;28;20206;-83
2021/10/31 07:50:16;;;;;;;;;;;24.30;44.60;;;;;;5064996;28;20251;-81
2021/10/31 07:52:43;;;;;;;;;;;24.30;44.60;;;;;;5064648;28;19916;-82
2021/10/31 07:55:12;;;;;;;;;;;24.20;44.70;;;;;;5064456;28;20332;-80
2021/10/31 07:57:38;;;;;;;;;;;24.30;44.70;;;;;;5081479;28;19920;-82
2021/10/31 08:00:06;;;;;;;;;;;24.30;44.70;;;;;;5064709;28;19973;-82
2021/10/31 08:02:34;;;;;;;;;;;24.20;44.70;;;;;;5065019;28;19912;-81
2021/10/31 08:05:00;;;;;;;;;;;24.20;44.70;;;;;;5081328;28;19919;-82
2021/10/31 08:07:29;;;;;;;;;;;24.20;44.80;;;;;;5064606;28;19908;-82
2021/10/31 08:09:58;;;;;;;;;;;24.20;44.80;;;;;;5081890;28;19934;-81
2021/10/31 08:12:28;;;;;;;;;;;24.20;44.80;;;;;;5082514;28;19940;-83
2021/10/31 08:14:58;;;;;;;;;;;24.20;44.90;;;;;;5065159;28;19966;-82
2021/10/31 08:17:29;;;;;;;;;;;24.20;45.00;;;;;;5065097;28;19916;-81
2021/10/31 08:19:54;;;;;;;;;;;24.20;45.50;;;;;;5065321;28;20006;-83
2021/10/31 08:22:22;;;;;;;;;;;24.20;45.00;;;;;;5064554;28;19948;-82
2021/10/31 08:24:50;;;;;;;;;;;24.20;45.10;;;;;;5081687;28;19966;-82
2021/10/31 08:27:15;;;;;;;;;;;24.20;45.10;;;;;;5064584;28;19908;-82
2021/10/31 08:29:42;;;;;;;;;;;24.20;45.00;;;;;;5080256;28;19912;-82
2021/10/31 08:32:07;;;;;;;;;;;24.20;45.00;;;;;;5064334;28;20237;-83
2021/10/31 08:34:35;;;;;;;;;;;24.20;45.00;;;;;;5064428;28;19912;-83
2021/10/31 08:37:01;;;;;;;;;;;24.20;45.00;;;;;;5081138;28;19912;-83
2021/10/31 08:39:26;;;;;;;;;;;24.20;45.00;;;;;;5097931;28;19977;-83
2021/10/31 08:41:54;;;;;;;;;;;24.20;45.00;;;;;;5063985;28;19911;-86
2021/10/31 08:44:22;;;;;;;;;;;24.20;45.00;;;;;;5080555;28;19936;-85
2021/10/31 08:46:53;;;;;;;;;;;24.20;44.90;;;;;;5063660;28;19916;-84
2021/10/31 08:49:19;;;;;;;;;;;24.20;44.90;;;;;;5064173;28;19930;-82
2021/10/31 08:51:47;;;;;;;;;;;24.20;45.00;;;;;;5080544;28;19908;-82
2021/10/31 08:54:13;;;;;;;;;;;24.20;45.00;;;;;;5080913;28;19912;-82
2021/10/31 08:56:42;;;;;;;;;;;24.20;45.00;;;;;;5063194;28;19908;-81
2021/10/31 08:59:09;;;;;;;;;;;24.20;45.10;;;;;;5063740;28;19908;-82
2021/10/31 09:01:37;;;;;;;;;;;24.20;45.10;;;;;;5063881;28;20002;-83
2021/10/31 09:04:03;;;;;;;;;;;24.20;45.20;;;;;;5080140;28;20261;-81
2021/10/31 09:06:28;;;;;;;;;;;24.20;45.20;;;;;;5064561;28;20355;-81
2021/10/31 09:08:54;;;;;;;;;;;24.20;45.20;;;;;;5063273;28;19908;-83
2021/10/31 09:11:19;;;;;;;;;;;24.10;45.30;;;;;;5063015;28;19908;-84
2021/10/31 09:13:46;;;;;;;;;;;24.10;45.30;;;;;;5080097;28;19908;-83
2021/10/31 09:16:14;;;;;;;;;;;24.20;45.30;;;;;;5080098;28;19951;-82
2021/10/31 09:18:42;;;;;;;;;;;24.20;45.20;;;;;;5063361;28;19919;-81
2021/10/31 09:21:08;;;;;;;;;;;24.20;45.20;;;;;;5063366;28;19912;-81
2021/10/31 09:23:34;;;;;;;;;;;24.20;45.20;;;;;;5062942;28;19908;-82
2021/10/31 09:26:02;;;;;;;;;;;24.20;45.20;;;;;;5079667;28;19919;-82
2021/10/31 09:28:27;;;;;;;;;;;24.20;45.20;;;;;;5079624;28;20336;-85
2021/10/31 09:30:55;;;;;;;;;;;24.20;45.30;;;;;;5079627;28;19908;-83
2021/10/31 09:33:21;;;;;;;;;;;24.20;45.20;;;;;;5063042;28;19970;-81
2021/10/31 09:35:49;;;;;;;;;;;24.10;45.20;;;;;;5063837;28;20317;-84
2021/10/31 09:38:18;;;;;;;;;;;24.10;45.30;;;;;;5062834;28;20062;-81
2021/10/31 09:40:49;;;;;;;;;;;24.10;45.30;;;;;;5062960;28;20371;-83
2021/10/31 09:43:17;;;;;;;;;;;24.20;45.40;;;;;;5063237;28;19916;-84
2021/10/31 09:45:43;;;;;;;;;;;24.10;45.40;;;;;;5062744;28;20245;-81
2021/10/31 09:48:16;;;;;;;;;;;24.10;45.50;;;;;;5079228;28;19908;-82
2021/10/31 09:50:43;;;;;;;;;;;24.10;45.50;;;;;;5080094;28;19939;-81
2021/10/31 09:53:11;;;;;;;;;;;24.10;45.50;;;;;;5062405;28;19951;-83
2021/10/31 09:55:39;;;;;;;;;;;24.10;45.50;;;;;;5079618;28;19954;-82
2021/10/31 09:58:15;;;;;;;;;;;24.10;45.50;;;;;;5062498;28;19912;-83
2021/10/31 10:00:44;;;;;;;;;;;24.10;45.50;;;;;;5064042;28;19920;-83
2021/10/31 10:06:16;;;;;;;;;;;24.10;45.40;;;;;;5081851;28;19916;-82
2021/10/31 10:08:58;;;;;;;;;;;24.10;45.40;;;;;;5078758;28;19912;-81
2021/10/31 10:11:23;;;;;;;;;;;24.10;45.40;;;;;;5078661;28;19908;-81
2021/10/31 10:13:51;;;;;;;;;;;24.10;45.40;;;;;;5078708;28;19966;-81
2021/10/31 10:16:31;;;;;;;;;;;24.10;45.40;;;;;;5079234;28;19908;-83
2021/10/31 10:18:57;;;;;;;;;;;24.10;45.40;;;;;;5062091;28;19939;-83
2021/10/31 10:21:24;;;;;;;;;;;24.20;45.40;;;;;;5061850;28;19908;-86
2021/10/31 10:23:50;;;;;;;;;;;24.20;45.40;;;;;;5061588;28;20288;-83
2021/10/31 10:26:31;;;;;;;;;;;24.20;45.40;;;;;;5078717;28;19908;-82
2021/10/31 10:29:01;;;;;;;;;;;24.20;45.40;;;;;;5078480;28;19995;-81
2021/10/31 10:31:29;;;;;;;;;;;24.20;45.40;;;;;;5061865;28;19908;-85
2021/10/31 10:33:59;;;;;;;;;;;24.20;45.40;;;;;;5078647;28;19931;-85
2021/10/31 10:36:25;;;;;;;;;;;24.20;45.60;;;;;;5079167;28;19919;-84
2021/10/31 10:39:01;;;;;;;;;;;24.20;46.00;;;;;;5061756;28;19920;-81
2021/10/31 10:41:59;;;;;;;;;;;24.20;46.00;;;;;;5061365;28;20011;-83
2021/10/31 10:44:26;;;;;;;;;;;24.30;46.00;;;;;;5061837;28;20006;-82
2021/10/31 10:47:22;;;;;;;;;;;24.20;45.80;;;;;;5061329;28;20293;-81
2021/10/31 10:49:48;;;;;;;;;;;24.30;45.80;;;;;;5095776;28;20128;-82
2021/10/31 10:52:23;;;;;;;;;;;24.30;45.80;;;;;;5060432;28;19908;-81
2021/10/31 10:55:07;;;;;;;;;;;24.30;45.70;;;;;;5095249;28;19974;-82
2021/10/31 10:57:36;;;;;;;;;;;24.30;45.70;;;;;;5077906;28;19909;-85
2021/10/31 11:00:12;;;;;;;;;;;24.20;45.70;;;;;;5060943;28;19923;-80
2021/10/31 11:02:37;;;;;;;;;;;24.30;45.80;;;;;;5061713;28;19908;-83
2021/10/31 11:05:06;;;;;;;;;;;24.30;45.70;;;;;;5077796;28;19915;-81
2021/10/31 11:07:35;;;;;;;;;;;24.30;45.50;;;;;;5061016;28;20245;-85
2021/10/31 11:10:03;;;;;;;;;;;24.30;45.60;;;;;;5062314;28;19908;-83
2021/10/31 11:12:33;;;;;;;;;;;24.30;46.00;;;;;;5062939;28;19947;-84
2021/10/31 11:14:59;;;;;;;;;;;24.30;45.80;;;;;;5062491;28;19927;-84
2021/10/31 11:17:27;;;;;;;;;;;24.40;45.70;;;;;;5077945;28;19908;-84
2021/10/31 11:19:56;;;;;;;;;;;24.40;45.60;;;;;;5063362;28;19908;-85
2021/10/31 11:22:22;;;;;;;;;;;24.40;45.90;;;;;;5078279;28;19908;-83
2021/10/31 11:24:49;;;;;;;;;;;24.50;46.00;;;;;;5061444;28;20360;-83
2021/10/31 11:27:16;;;;;;;;;;;24.50;46.00;;;;;;5062516;28;20214;-87
2021/10/31 11:29:42;;;;;;;;;;;24.50;45.90;;;;;;5061613;28;19920;-82
2021/10/31 11:32:08;;;;;;;;;;;24.50;45.80;;;;;;5061901;28;19912;-84
2021/10/31 11:34:33;;;;;;;;;;;24.50;45.70;;;;;;5061272;28;20264;-85
2021/10/31 11:36:59;;;;;;;;;;;24.50;45.60;;;;;;5061424;28;19954;-84
2021/10/31 11:39:24;;;;;;;;;;;24.50;45.70;;;;;;5060976;28;19920;-85
2021/10/31 11:41:50;;;;;;;;;;;24.50;47.20;;;;;;5061310;28;19916;-82
2021/10/31 11:44:15;;;;;;;;;;;24.50;47.10;;;;;;5061445;28;19962;-83
2021/10/31 11:46:44;;;;;;;;;;;24.50;47.00;;;;;;5061131;28;19923;-84
2021/10/31 11:49:12;;;;;;;;;;;24.50;46.40;;;;;;5078581;28;20451;-86
2021/10/31 11:51:45;;;;;;;;;;;24.60;46.30;;;;;;5061984;28;19974;-85
2021/10/31 11:54:15;;;;;;;;;;;24.60;46.10;;;;;;5079800;28;19912;-84
2021/10/31 11:56:50;;;;;;;;;;;24.60;46.70;;;;;;5063286;28;19908;-84
2021/10/31 11:59:16;;;;;;;;;;;24.70;51.20;;;;;;5063870;28;20329;-78
2021/10/31 12:01:55;;;;;;;;;;;24.70;52.00;;;;;;5061330;28;19923;-81
2021/10/31 12:08:00;;;;;;;;;;;24.80;51.90;;;;;;5098760;28;19920;-84
2021/10/31 12:10:28;;;;;;;;;;;24.70;52.80;;;;;;5065422;28;19908;-84
2021/10/31 12:13:14;;;;;;;;;;;24.70;52.80;;;;;;5082063;28;20263;-83
2021/10/31 12:15:58;;;;;;;;;;;24.70;53.70;;;;;;5099601;28;19912;-86
2021/10/31 12:18:42;;;;;;;;;;;24.80;54.60;;;;;;5099803;28;19908;-83
2021/10/31 12:21:22;;;;;;;;;;;24.80;55.00;;;;;;5082369;28;19908;-85
2021/10/31 12:23:55;;;;;;;;;;;24.80;55.30;;;;;;5081037;28;19979;-83
2021/10/31 12:26:24;;;;;;;;;;;24.80;53.90;;;;;;5064664;28;19930;-85
2021/10/31 12:28:50;;;;;;;;;;;24.80;52.50;;;;;;5081170;28;19908;-84
2021/10/31 12:31:21;;;;;;;;;;;24.80;52.20;;;;;;5064479;28;19920;-83
2021/10/31 12:34:05;;;;;;;;;;;24.80;51.80;;;;;;5080647;28;19916;-83
2021/10/31 12:36:31;;;;;;;;;;;24.90;51.70;;;;;;5097954;28;19973;-84
2021/10/31 12:38:59;;;;;;;;;;;24.90;51.50;;;;;;5063848;28;19967;-85
2021/10/31 12:41:38;;;;;;;;;;;24.90;51.30;;;;;;5064460;28;19912;-86
2021/10/31 12:44:13;;;;;;;;;;;24.90;51.20;;;;;;5064357;28;20329;-83
2021/10/31 12:46:40;;;;;;;;;;;24.90;51.00;;;;;;5063650;28;19939;-83
2021/10/31 12:49:08;;;;;;;;;;;24.90;50.90;;;;;;5063894;28;19930;-86
2021/10/31 12:51:48;;;;;;;;;;;25.00;50.90;;;;;;5063567;28;19909;-83
2021/10/31 12:54:20;;;;;;;;;;;25.00;50.70;;;;;;5080754;28;19912;-86
2021/10/31 12:56:47;;;;;;;;;;;25.00;50.70;;;;;;5064218;28;19912;-86
2021/10/31 12:59:16;;;;;;;;;;;25.00;50.50;;;;;;5063627;28;19949;-85
2021/10/31 13:01:45;;;;;;;;;;;25.00;50.50;;;;;;5081210;28;19965;-84
2021/10/31 13:04:10;;;;;;;;;;;25.00;50.30;;;;;;5080692;28;19919;-83
2021/10/31 13:06:55;;;;;;;;;;;25.00;50.30;;;;;;5063810;28;19908;-84
2021/10/31 13:09:21;;;;;;;;;;;25.00;50.30;;;;;;5064138;28;20010;-81
2021/10/31 13:11:46;;;;;;;;;;;25.00;50.20;;;;;;5063432;28;19954;-84
2021/10/31 13:14:28;;;;;;;;;;;25.00;50.10;;;;;;5079564;28;20401;-82
2021/10/31 13:16:58;;;;;;;;;;;25.00;50.10;;;;;;5080636;28;19908;-83
2021/10/31 13:19:24;;;;;;;;;;;25.00;50.10;;;;;;5063396;28;19957;-83
2021/10/31 13:21:56;;;;;;;;;;;25.00;50.60;;;;;;5063054;28;19913;-82
2021/10/31 13:24:24;;;;;;;;;;;25.00;50.00;;;;;;5080458;28;19908;-86
2021/10/31 13:26:50;;;;;;;;;;;25.10;50.00;;;;;;5080080;28;19908;-86
2021/10/31 13:29:18;;;;;;;;;;;25.00;50.00;;;;;;5062766;28;19919;-83
2021/10/31 13:31:43;;;;;;;;;;;25.00;49.90;;;;;;5080078;28;20351;-83
2021/10/31 13:34:10;;;;;;;;;;;25.10;50.00;;;;;;5080195;28;19912;-83
2021/10/31 13:36:36;;;;;;;;;;;25.00;49.90;;;;;;5063409;28;19908;-84
2021/10/31 13:39:06;;;;;;;;;;;25.10;49.90;;;;;;5063140;28;19920;-85
2021/10/31 13:41:32;;;;;;;;;;;25.10;49.90;;;;;;5063363;28;19923;-83
2021/10/31 13:43:58;;;;;;;;;;;25.10;49.80;;;;;;5079671;28;19912;-84
2021/10/31 13:46:26;;;;;;;;;;;25.10;49.90;;;;;;5063379;28;19909;-82
2021/10/31 13:48:58;;;;;;;;;;;25.10;49.80;;;;;;5062681;28;20336;-84
2021/10/31 13:51:24;;;;;;;;;;;25.10;49.80;;;;;;5079328;28;19938;-83
2021/10/31 13:53:50;;;;;;;;;;;25.10;49.80;;;;;;5062348;28;19908;-86
2021/10/31 13:56:18;;;;;;;;;;;25.10;49.80;;;;;;5062284;28;20064;-83
2021/10/31 13:58:43;;;;;;;;;;;25.10;49.80;;;;;;5062839;28;19908;-85
2021/10/31 14:01:09;;;;;;;;;;;25.10;49.70;;;;;;5079329;28;19919;-82
2021/10/31 14:03:43;;;;;;;;;;;25.10;49.70;;;;;;5062410;28;20229;-85
2021/10/31 14:06:11;;;;;;;;;;;25.10;49.60;;;;;;5062523;28;19919;-83
2021/10/31 14:08:44;;;;;;;;;;;25.10;49.60;;;;;;5078831;28;19909;-85
2021/10/31 14:11:12;;;;;;;;;;;25.10;49.60;;;;;;5062232;28;19978;-86
2021/10/31 14:13:39;;;;;;;;;;;25.10;49.60;;;;;;5062063;28;19931;-82
2021/10/31 14:16:04;;;;;;;;;;;25.10;49.60;;;;;;5062104;28;19920;-82
2021/10/31 14:18:32;;;;;;;;;;;25.10;49.60;;;;;;5062104;28;20475;-85
2021/10/31 14:21:04;;;;;;;;;;;25.10;49.50;;;;;;5062253;28;19908;-85
2021/10/31 14:23:32;;;;;;;;;;;25.10;49.50;;;;;;5062281;28;19919;-87
2021/10/31 14:26:04;;;;;;;;;;;25.10;49.50;;;;;;5062388;28;20253;-83
2021/10/31 14:28:33;;;;;;;;;;;25.10;49.40;;;;;;5062212;28;20023;-84
2021/10/31 14:30:59;;;;;;;;;;;25.20;49.40;;;;;;5062464;28;20218;-84